createdAt,value
2019-03-27T00:00:07.774Z,6.80
2019-03-27T00:02:34.120Z,6.57
2019-03-27T00:05:00.687Z,5.97
2019-03-27T00:07:27.179Z,6.67
2019-03-27T00:09:53.585Z,6.30
2019-03-27T00:12:19.910Z,5.87
2019-03-27T00:14:46.369Z,5.90
2019-03-27T00:17:12.856Z,5.73
2019-03-27T00:19:39.217Z,7.37
2019-03-27T00:22:05.931Z,6.23
2019-03-27T00:24:32.289Z,9.17
2019-03-27T00:26:58.689Z,8.50
2019-03-27T00:29:25.201Z,8.67
2019-03-27T00:31:51.596Z,8.27
2019-03-27T00:34:18.060Z,8.30
2019-03-27T00:36:44.658Z,9.07
2019-03-27T00:39:11.104Z,8.40
2019-03-27T00:41:37.472Z,8.80
2019-03-27T00:44:03.830Z,7.37
2019-03-27T00:46:30.282Z,7.67
2019-03-27T00:48:56.714Z,6.67
2019-03-27T00:51:22.951Z,6.47
2019-03-27T00:53:49.252Z,6.70
2019-03-27T00:56:15.671Z,5.53
2019-03-27T00:58:42.062Z,5.87
2019-03-27T01:01:08.780Z,6.93
2019-03-27T01:03:35.465Z,7.00
2019-03-27T01:06:02.924Z,6.60
2019-03-27T01:08:29.482Z,6.50
2019-03-27T01:10:55.745Z,9.23
2019-03-27T01:13:22.353Z,7.87
2019-03-27T01:15:48.707Z,7.60
2019-03-27T01:18:15.186Z,7.93
2019-03-27T01:20:41.647Z,9.03
2019-03-27T01:23:08.214Z,8.50
2019-03-27T01:25:34.475Z,9.30
2019-03-27T01:28:00.816Z,7.73
2019-03-27T01:30:27.226Z,7.87
2019-03-27T01:32:53.595Z,7.87
2019-03-27T01:35:20.161Z,8.50
2019-03-27T01:37:46.524Z,8.20
2019-03-27T01:40:12.916Z,8.07
2019-03-27T01:42:39.282Z,6.87
2019-03-27T01:45:06.534Z,6.80
2019-03-27T01:47:33.005Z,7.57
2019-03-27T01:49:59.370Z,7.33
2019-03-27T01:52:25.769Z,7.23
2019-03-27T01:54:52.148Z,8.63
2019-03-27T01:57:18.537Z,9.30
2019-03-27T01:59:45.014Z,9.53
2019-03-27T02:02:11.521Z,7.90
2019-03-27T02:04:37.816Z,9.23
2019-03-27T02:07:04.181Z,7.93
2019-03-27T02:09:30.957Z,8.03
2019-03-27T02:11:57.246Z,7.60
2019-03-27T02:14:23.830Z,8.87
2019-03-27T02:16:50.134Z,8.40
2019-03-27T02:19:16.485Z,8.53
2019-03-27T02:21:42.968Z,7.73
2019-03-27T02:24:09.397Z,8.53
2019-03-27T02:26:35.865Z,8.23
2019-03-27T02:29:02.325Z,8.27
2019-03-27T02:31:28.699Z,8.13
2019-03-27T02:33:55.095Z,8.80
2019-03-27T02:36:21.478Z,12.20
2019-03-27T02:38:47.904Z,10.50
2019-03-27T02:41:14.336Z,11.93
2019-03-27T02:43:40.703Z,9.40
2019-03-27T02:46:23.312Z,10.03
2019-03-27T02:48:35.251Z,9.27
2019-03-27T02:51:01.521Z,9.70
2019-03-27T02:53:27.938Z,8.63
2019-03-27T02:55:54.318Z,9.80
2019-03-27T02:58:20.795Z,8.40
2019-03-27T03:00:47.241Z,11.87
2019-03-27T03:03:13.716Z,11.17
2019-03-27T03:05:39.971Z,11.17
2019-03-27T03:08:06.348Z,10.93
2019-03-27T03:10:32.845Z,10.60
2019-03-27T03:12:59.355Z,9.10
2019-03-27T03:15:25.841Z,10.43
2019-03-27T03:17:52.425Z,9.07
2019-03-27T03:20:18.937Z,9.17
2019-03-27T03:22:45.378Z,9.27
2019-03-27T03:25:12.070Z,11.07
2019-03-27T03:27:38.322Z,10.67
2019-03-27T03:30:07.803Z,10.80
2019-03-27T03:32:34.181Z,9.40
2019-03-27T03:35:00.974Z,8.80
2019-03-27T03:37:27.428Z,8.03
2019-03-27T03:39:53.703Z,8.13
2019-03-27T03:42:20.076Z,8.27
2019-03-27T03:44:47.052Z,7.23
2019-03-27T03:47:13.511Z,6.77
2019-03-27T03:49:39.922Z,8.97
2019-03-27T03:52:06.408Z,7.43
2019-03-27T03:54:33.200Z,7.33
2019-03-27T03:57:00.753Z,6.70
2019-03-27T03:59:27.417Z,6.93
2019-03-27T04:01:54.000Z,6.63
2019-03-27T04:04:22.660Z,6.97
2019-03-27T04:06:49.129Z,6.37
2019-03-27T04:09:15.461Z,7.13
2019-03-27T04:11:41.821Z,7.17
2019-03-27T04:14:08.238Z,8.60
2019-03-27T04:16:34.901Z,7.77
2019-03-27T04:19:01.195Z,7.17
2019-03-27T04:21:27.460Z,6.93
2019-03-27T04:23:53.699Z,7.37
2019-03-27T04:26:20.099Z,7.43
2019-03-27T04:28:46.508Z,6.97
2019-03-27T04:31:12.992Z,8.23
2019-03-27T04:33:39.345Z,8.53
2019-03-27T04:36:05.591Z,7.00
2019-03-27T04:38:32.097Z,6.60
2019-03-27T04:40:58.435Z,6.60
2019-03-27T04:43:24.827Z,7.40
2019-03-27T04:45:51.282Z,7.10
2019-03-27T04:48:18.414Z,6.50
2019-03-27T04:50:44.692Z,7.33
2019-03-27T04:53:11.047Z,7.67
2019-03-27T04:55:37.307Z,7.90
2019-03-27T04:58:03.808Z,7.80
2019-03-27T05:00:30.212Z,7.10
2019-03-27T05:02:56.487Z,6.33
2019-03-27T05:05:22.998Z,7.33
2019-03-27T05:07:49.437Z,5.93
2019-03-27T05:10:16.046Z,6.53
2019-03-27T05:12:42.592Z,6.43
2019-03-27T05:15:09.055Z,6.17
2019-03-27T05:17:45.662Z,7.20
2019-03-27T05:20:09.250Z,5.93
2019-03-27T05:22:35.928Z,5.57
2019-03-27T05:25:02.902Z,6.00
2019-03-27T05:27:29.275Z,6.93
2019-03-27T05:29:55.524Z,6.40
2019-03-27T05:32:21.803Z,6.87
2019-03-27T05:34:48.199Z,6.87
2019-03-27T05:37:14.576Z,6.07
2019-03-27T05:39:41.026Z,6.20
2019-03-27T05:42:07.529Z,6.77
2019-03-27T05:44:33.760Z,7.23
2019-03-27T05:47:01.142Z,8.03
2019-03-27T05:49:27.488Z,8.60
2019-03-27T05:51:54.389Z,9.50
2019-03-27T05:54:20.745Z,8.03
2019-03-27T05:56:47.007Z,8.27
2019-03-27T05:59:13.354Z,12.10
2019-03-27T06:01:39.837Z,9.20
2019-03-27T06:04:06.243Z,8.27
2019-03-27T06:06:32.565Z,8.00
2019-03-27T06:08:59.044Z,8.87
2019-03-27T06:11:25.409Z,7.93
2019-03-27T06:13:51.735Z,7.43
2019-03-27T06:16:18.202Z,7.23
2019-03-27T06:18:44.596Z,8.00
2019-03-27T06:21:11.033Z,9.50
2019-03-27T06:23:37.685Z,8.83
2019-03-27T06:26:04.153Z,10.50
2019-03-27T06:28:30.423Z,10.43
2019-03-27T06:30:56.808Z,10.60
2019-03-27T06:33:23.198Z,13.67
2019-03-27T06:35:49.534Z,14.63
2019-03-27T06:38:15.948Z,16.13
2019-03-27T06:40:42.375Z,17.80
2019-03-27T06:43:08.642Z,17.50
2019-03-27T06:45:35.115Z,18.60
2019-03-27T06:48:01.331Z,20.07
2019-03-27T06:50:27.767Z,21.17
2019-03-27T06:52:54.052Z,21.53
2019-03-27T06:55:20.395Z,22.63
2019-03-27T06:57:46.714Z,21.63
2019-03-27T07:00:13.500Z,17.07
2019-03-27T07:02:39.876Z,17.37
2019-03-27T07:05:06.644Z,18.40
2019-03-27T07:07:32.916Z,17.77
2019-03-27T07:09:59.349Z,20.93
2019-03-27T07:12:25.747Z,17.93
2019-03-27T07:14:52.139Z,22.07
2019-03-27T07:17:18.398Z,20.17
2019-03-27T07:19:44.690Z,19.13
2019-03-27T07:22:11.026Z,23.77
2019-03-27T07:24:37.490Z,24.03
2019-03-27T07:27:03.921Z,26.87
2019-03-27T07:29:30.178Z,24.43
2019-03-27T07:31:56.440Z,24.37
2019-03-27T07:34:22.726Z,24.80
2019-03-27T07:36:49.140Z,26.40
2019-03-27T07:39:15.399Z,26.60
2019-03-27T07:41:41.698Z,26.33
2019-03-27T07:44:08.143Z,25.00
2019-03-27T07:46:34.491Z,21.50
2019-03-27T07:49:00.774Z,21.30
2019-03-27T07:51:27.186Z,25.57
2019-03-27T07:53:53.557Z,23.53
2019-03-27T07:56:20.030Z,22.33
2019-03-27T07:58:46.696Z,22.63
2019-03-27T08:01:14.087Z,20.87
2019-03-27T08:03:40.537Z,22.53
2019-03-27T08:06:06.891Z,21.60
2019-03-27T08:08:33.293Z,23.37
2019-03-27T08:10:59.674Z,22.62
2019-03-27T08:13:26.041Z,27.27
2019-03-27T08:15:52.395Z,25.25
2019-03-27T08:18:18.684Z,26.57
2019-03-27T08:20:45.040Z,24.90
2019-03-27T08:23:11.499Z,25.85
2019-03-27T08:25:37.990Z,25.65
2019-03-27T08:28:04.334Z,25.07
2019-03-27T08:30:32.416Z,25.60
2019-03-27T08:32:58.919Z,24.37
2019-03-27T08:35:25.282Z,25.45
2019-03-27T08:37:51.620Z,23.27
2019-03-27T08:40:17.954Z,22.20
2019-03-27T08:42:44.392Z,22.65
2019-03-27T08:45:11.379Z,23.18
2019-03-27T08:47:37.843Z,24.80
2019-03-27T08:50:07.739Z,25.62
2019-03-27T08:52:34.086Z,24.77
2019-03-27T08:55:00.377Z,25.15
2019-03-27T08:57:26.789Z,24.95
2019-03-27T08:59:53.251Z,23.38
2019-03-27T09:02:20.010Z,20.37
2019-03-27T09:04:46.401Z,22.60
2019-03-27T09:07:12.884Z,23.65
2019-03-27T09:09:39.420Z,22.42
2019-03-27T09:12:05.702Z,21.10
2019-03-27T09:14:32.119Z,23.77
2019-03-27T09:16:58.501Z,22.80
2019-03-27T09:19:35.119Z,24.05
2019-03-27T09:21:53.032Z,23.47
2019-03-27T09:24:19.277Z,21.27
2019-03-27T09:26:45.657Z,19.92
2019-03-27T09:29:12.061Z,20.60
2019-03-27T09:31:44.651Z,17.57
2019-03-27T09:34:06.373Z,18.00
2019-03-27T09:36:32.666Z,16.62
2019-03-27T09:38:59.050Z,17.07
2019-03-27T09:41:25.929Z,16.27
2019-03-27T09:43:52.446Z,19.37
2019-03-27T09:46:19.706Z,16.25
2019-03-27T09:48:46.186Z,14.07
2019-03-27T09:51:12.556Z,14.78
2019-03-27T09:53:38.849Z,13.35
2019-03-27T09:56:18.453Z,13.48
2019-03-27T09:58:33.660Z,12.37
2019-03-27T10:01:00.454Z,10.60
2019-03-27T10:03:27.251Z,9.58
2019-03-27T10:05:53.813Z,11.48
2019-03-27T10:08:20.196Z,10.10
2019-03-27T10:10:46.721Z,12.73
2019-03-27T10:13:13.005Z,12.50
2019-03-27T10:15:39.504Z,13.40
2019-03-27T10:18:05.886Z,13.43
2019-03-27T10:20:32.666Z,14.28
2019-03-27T10:22:59.166Z,12.55
2019-03-27T10:25:25.466Z,11.65
2019-03-27T10:27:51.830Z,10.15
2019-03-27T10:30:18.313Z,10.45
2019-03-27T10:32:44.776Z,7.67
2019-03-27T10:35:11.802Z,9.65
2019-03-27T10:37:38.158Z,11.97
2019-03-27T10:40:06.027Z,9.85
2019-03-27T10:42:32.395Z,9.25
2019-03-27T10:44:58.758Z,11.38
2019-03-27T10:47:25.240Z,12.68
2019-03-27T10:49:51.632Z,12.23
2019-03-27T10:52:17.910Z,13.50
2019-03-27T10:54:44.503Z,13.50
2019-03-27T10:57:10.750Z,12.07
2019-03-27T10:59:37.139Z,15.10
2019-03-27T11:02:03.537Z,11.93
2019-03-27T11:04:29.933Z,11.78
2019-03-27T11:06:56.318Z,8.98
2019-03-27T11:09:23.002Z,6.40
2019-03-27T11:11:49.369Z,5.53
2019-03-27T11:14:16.542Z,9.75
2019-03-27T11:16:42.919Z,10.40
2019-03-27T11:19:09.676Z,6.42
2019-03-27T11:21:36.165Z,6.65
2019-03-27T11:24:02.614Z,7.03
2019-03-27T11:26:29.152Z,8.43
2019-03-27T11:28:55.445Z,8.25
2019-03-27T11:31:21.820Z,9.05
2019-03-27T11:33:48.820Z,6.20
2019-03-27T11:36:15.207Z,7.90
2019-03-27T11:38:41.504Z,5.85
2019-03-27T11:41:07.883Z,7.40
2019-03-27T11:43:34.319Z,5.28
2019-03-27T11:46:00.749Z,6.80
2019-03-27T11:48:27.053Z,6.70
2019-03-27T11:50:53.544Z,5.35
2019-03-27T11:53:19.948Z,4.05
2019-03-27T11:55:46.284Z,4.30
2019-03-27T11:58:14.942Z,3.85
2019-03-27T12:00:53.939Z,5.35
2019-03-27T12:03:09.218Z,5.28
2019-03-27T12:05:35.606Z,6.78
2019-03-27T12:08:02.018Z,5.47
2019-03-27T12:10:28.486Z,5.37
2019-03-27T12:12:54.939Z,5.67
2019-03-27T12:15:38.258Z,4.53
2019-03-27T12:18:06.605Z,4.10
2019-03-27T12:20:32.956Z,6.45
2019-03-27T12:22:59.357Z,6.37
2019-03-27T12:25:25.820Z,7.85
2019-03-27T12:27:52.211Z,9.10
2019-03-27T12:30:18.744Z,8.75
2019-03-27T12:32:45.140Z,7.70
2019-03-27T12:35:11.731Z,7.45
2019-03-27T12:37:38.153Z,8.15
2019-03-27T12:40:11.404Z,7.12
2019-03-27T12:42:32.956Z,5.53
2019-03-27T12:45:01.776Z,5.53
2019-03-27T12:47:27.720Z,6.47
2019-03-27T12:49:54.213Z,6.40
2019-03-27T12:52:20.706Z,5.67
2019-03-27T12:54:47.028Z,5.83
2019-03-27T12:57:13.479Z,5.12
2019-03-27T12:59:39.869Z,4.53
2019-03-27T13:02:06.727Z,5.30
2019-03-27T13:04:32.987Z,4.40
2019-03-27T13:06:59.402Z,4.47
2019-03-27T13:09:27.126Z,7.03
2019-03-27T13:11:53.495Z,5.72
2019-03-27T13:14:19.776Z,7.08
2019-03-27T13:16:46.074Z,10.98
2019-03-27T13:19:12.550Z,10.10
2019-03-27T13:21:38.975Z,9.05
2019-03-27T13:24:05.407Z,8.15
2019-03-27T13:26:31.856Z,9.10
2019-03-27T13:28:58.392Z,8.90
2019-03-27T13:31:24.943Z,8.80
2019-03-27T13:33:51.291Z,8.38
2019-03-27T13:36:17.754Z,9.23
2019-03-27T13:38:44.257Z,9.48
2019-03-27T13:41:10.705Z,9.25
2019-03-27T13:43:37.085Z,8.68
2019-03-27T13:46:03.462Z,8.03
2019-03-27T13:48:29.712Z,8.00
2019-03-27T13:50:56.223Z,7.42
2019-03-27T13:53:22.772Z,7.83
2019-03-27T13:55:48.996Z,7.50
2019-03-27T13:58:15.366Z,7.53
2019-03-27T14:00:42.911Z,8.40
2019-03-27T14:03:09.308Z,7.42
2019-03-27T14:05:35.658Z,7.35
2019-03-27T14:08:02.022Z,6.75
2019-03-27T14:10:28.523Z,7.53
2019-03-27T14:12:55.015Z,8.33
2019-03-27T14:15:21.564Z,7.33
2019-03-27T14:17:47.916Z,12.45
2019-03-27T14:20:14.487Z,8.43
2019-03-27T14:22:40.932Z,7.60
2019-03-27T14:25:08.387Z,7.40
2019-03-27T14:27:34.961Z,7.22
2019-03-27T14:30:01.440Z,7.45
2019-03-27T14:32:27.927Z,7.28
2019-03-27T14:34:54.351Z,6.83
2019-03-27T14:37:20.624Z,6.87
2019-03-27T14:39:47.075Z,7.17
2019-03-27T14:42:13.434Z,6.33
2019-03-27T14:44:39.672Z,5.62
2019-03-27T14:47:06.062Z,6.10
2019-03-27T14:49:32.329Z,5.15
2019-03-27T14:52:08.073Z,4.72
2019-03-27T14:54:26.879Z,6.78
2019-03-27T14:56:53.281Z,5.33
2019-03-27T14:59:19.645Z,4.33
2019-03-27T15:01:45.914Z,5.70
2019-03-27T15:04:12.456Z,6.53
2019-03-27T15:06:38.798Z,6.10
2019-03-27T15:09:06.532Z,7.17
2019-03-27T15:11:32.912Z,7.25
2019-03-27T15:13:59.440Z,6.67
2019-03-27T15:16:25.886Z,6.10
2019-03-27T15:18:52.776Z,6.12
2019-03-27T15:21:19.269Z,4.78
2019-03-27T15:23:45.578Z,4.87
2019-03-27T15:26:11.848Z,4.90
2019-03-27T15:28:38.196Z,6.47
2019-03-27T15:31:04.565Z,5.50
2019-03-27T15:33:30.951Z,5.80
2019-03-27T15:35:57.255Z,5.92
2019-03-27T15:38:23.582Z,5.90
2019-03-27T15:40:49.916Z,5.03
2019-03-27T15:43:16.415Z,5.03
2019-03-27T15:45:42.897Z,5.10
2019-03-27T15:48:09.233Z,5.75
2019-03-27T15:50:35.617Z,5.42
2019-03-27T15:53:01.999Z,5.45
2019-03-27T15:55:28.259Z,4.80
2019-03-27T15:57:54.651Z,5.33
2019-03-27T16:00:21.071Z,4.80
2019-03-27T16:02:47.486Z,4.33
2019-03-27T16:05:13.845Z,4.60
2019-03-27T16:07:40.214Z,6.00
2019-03-27T16:10:06.669Z,5.28
2019-03-27T16:12:36.160Z,4.75
2019-03-27T16:15:01.409Z,5.10
2019-03-27T16:17:27.865Z,4.35
2019-03-27T16:19:54.204Z,3.90
2019-03-27T16:22:20.572Z,4.37
2019-03-27T16:24:46.963Z,5.12
2019-03-27T16:27:13.226Z,4.47
2019-03-27T16:29:39.584Z,3.90
2019-03-27T16:32:06.538Z,3.92
2019-03-27T16:34:33.756Z,4.22
2019-03-27T16:37:00.047Z,3.98
2019-03-27T16:39:26.613Z,3.95
2019-03-27T16:41:53.030Z,3.25
2019-03-27T16:44:19.667Z,3.65
2019-03-27T16:46:46.130Z,3.55
2019-03-27T16:49:12.692Z,4.22
2019-03-27T16:51:39.116Z,4.58
2019-03-27T16:54:05.538Z,3.90
2019-03-27T16:56:32.157Z,3.40
2019-03-27T16:58:58.639Z,4.40
2019-03-27T17:01:25.013Z,5.40
2019-03-27T17:03:51.845Z,3.98
2019-03-27T17:06:18.628Z,4.33
2019-03-27T17:08:44.998Z,5.10
2019-03-27T17:11:11.386Z,5.67
2019-03-27T17:13:37.820Z,7.03
2019-03-27T17:16:04.082Z,7.25
2019-03-27T17:18:30.682Z,5.37
2019-03-27T17:20:57.154Z,5.00
2019-03-27T17:23:23.445Z,4.80
2019-03-27T17:25:49.881Z,4.72
2019-03-27T17:28:16.187Z,4.50
2019-03-27T17:30:42.543Z,4.67
2019-03-27T17:33:09.019Z,4.53
2019-03-27T17:35:35.603Z,4.85
2019-03-27T17:38:02.077Z,5.33
2019-03-27T17:40:28.524Z,4.58
2019-03-27T17:42:54.891Z,4.40
2019-03-27T17:45:21.320Z,4.50
2019-03-27T17:47:47.889Z,5.05
2019-03-27T17:50:14.557Z,4.35
2019-03-27T17:52:41.039Z,4.20
2019-03-27T17:55:08.261Z,4.20
2019-03-27T17:57:34.718Z,3.92
2019-03-27T18:00:01.268Z,3.72
2019-03-27T18:02:27.770Z,3.90
2019-03-27T18:04:54.039Z,3.67
2019-03-27T18:07:20.443Z,3.30
2019-03-27T18:09:46.879Z,3.58
2019-03-27T18:12:14.173Z,3.70
2019-03-27T18:14:42.019Z,3.40
2019-03-27T18:17:08.932Z,3.17
2019-03-27T18:19:35.201Z,3.30
2019-03-27T18:22:07.498Z,2.85
2019-03-27T18:24:29.650Z,3.07
2019-03-27T18:26:56.049Z,2.67
2019-03-27T18:29:22.542Z,3.30
2019-03-27T18:31:48.782Z,2.80
2019-03-27T18:34:15.195Z,3.92
2019-03-27T18:36:41.565Z,3.13
2019-03-27T18:39:07.859Z,3.00
2019-03-27T18:41:34.310Z,2.90
2019-03-27T18:44:03.192Z,2.57
2019-03-27T18:46:28.962Z,2.62
2019-03-27T18:48:55.341Z,3.20
2019-03-27T18:51:21.749Z,3.00
2019-03-27T18:53:58.844Z,2.60
2019-03-27T18:56:16.221Z,2.20
2019-03-27T18:58:42.819Z,2.60
2019-03-27T19:01:09.334Z,2.90
2019-03-27T19:03:35.790Z,2.57
2019-03-27T19:06:02.290Z,2.37
2019-03-27T19:08:28.707Z,2.40
2019-03-27T19:10:55.046Z,2.70
2019-03-27T19:13:21.334Z,2.73
2019-03-27T19:15:47.810Z,2.50
2019-03-27T19:18:14.205Z,3.10
2019-03-27T19:20:40.718Z,4.03
2019-03-27T19:23:07.094Z,3.70
2019-03-27T19:25:33.545Z,4.10
2019-03-27T19:28:00.024Z,3.70
2019-03-27T19:30:26.548Z,3.57
2019-03-27T19:32:52.864Z,3.83
2019-03-27T19:35:19.214Z,3.37
2019-03-27T19:37:45.794Z,3.60
2019-03-27T19:40:12.367Z,3.00
2019-03-27T19:42:38.649Z,3.00
2019-03-27T19:45:05.707Z,7.37
2019-03-27T19:47:32.197Z,12.50
2019-03-27T19:49:58.681Z,14.27
2019-03-27T19:52:24.953Z,13.07
2019-03-27T19:54:51.405Z,11.83
2019-03-27T19:57:17.884Z,9.67
2019-03-27T19:59:44.282Z,9.30
2019-03-27T20:02:10.798Z,7.60
2019-03-27T20:04:37.136Z,6.63
2019-03-27T20:07:03.605Z,6.27
2019-03-27T20:09:29.984Z,5.33
2019-03-27T20:11:56.368Z,5.03
2019-03-27T20:14:22.808Z,4.90
2019-03-27T20:16:49.185Z,4.93
2019-03-27T20:19:15.693Z,4.80
2019-03-27T20:21:41.984Z,4.10
2019-03-27T20:24:08.417Z,4.37
2019-03-27T20:26:34.889Z,4.37
2019-03-27T20:29:01.353Z,4.10
2019-03-27T20:31:27.938Z,4.50
2019-03-27T20:33:54.281Z,4.13
2019-03-27T20:36:20.736Z,4.67
2019-03-27T20:38:47.197Z,5.70
2019-03-27T20:41:14.703Z,5.70
2019-03-27T20:43:41.211Z,5.67
2019-03-27T20:46:07.688Z,5.50
2019-03-27T20:48:34.106Z,4.90
2019-03-27T20:51:00.455Z,4.27
2019-03-27T20:53:26.902Z,3.80
2019-03-27T20:55:53.332Z,4.23
2019-03-27T20:58:19.844Z,3.80
2019-03-27T21:00:46.350Z,4.47
2019-03-27T21:03:12.715Z,4.83
2019-03-27T21:05:39.114Z,4.30
2019-03-27T21:08:05.609Z,5.57
2019-03-27T21:10:31.910Z,6.13
2019-03-27T21:12:58.331Z,7.50
2019-03-27T21:15:24.881Z,8.00
2019-03-27T21:17:51.333Z,7.43
2019-03-27T21:20:17.852Z,7.03
2019-03-27T21:22:44.400Z,6.07
2019-03-27T21:25:11.062Z,5.97
2019-03-27T21:27:37.509Z,5.67
2019-03-27T21:30:07.191Z,4.80
2019-03-27T21:32:33.545Z,5.50
2019-03-27T21:34:59.988Z,6.20
2019-03-27T21:37:26.437Z,5.50
2019-03-27T21:39:52.678Z,6.13
2019-03-27T21:42:19.003Z,5.40
2019-03-27T21:44:45.249Z,5.30
2019-03-27T21:47:11.672Z,5.20
2019-03-27T21:49:38.048Z,5.60
2019-03-27T21:52:04.329Z,4.97
2019-03-27T21:54:30.818Z,5.43
2019-03-27T21:56:57.335Z,4.80
2019-03-27T21:59:23.728Z,4.83
2019-03-27T22:01:50.094Z,4.47
2019-03-27T22:04:16.370Z,4.40
2019-03-27T22:06:42.994Z,4.03
2019-03-27T22:09:09.269Z,4.10
2019-03-27T22:11:35.883Z,4.30
2019-03-27T22:14:02.331Z,4.47
2019-03-27T22:16:28.693Z,4.07
2019-03-27T22:18:55.129Z,4.67
2019-03-27T22:21:21.519Z,4.43
2019-03-27T22:23:47.848Z,4.03
2019-03-27T22:26:14.244Z,4.00
2019-03-27T22:28:40.598Z,4.17
2019-03-27T22:31:07.009Z,4.27
2019-03-27T22:33:33.460Z,3.77
2019-03-27T22:35:59.891Z,3.27
2019-03-27T22:38:26.358Z,3.70
2019-03-27T22:40:52.690Z,3.33
2019-03-27T22:43:19.129Z,3.53
2019-03-27T22:45:45.580Z,3.17
2019-03-27T22:48:11.922Z,3.30
2019-03-27T22:50:38.436Z,3.67
2019-03-27T22:53:04.705Z,3.90
2019-03-27T22:55:30.994Z,4.43
2019-03-27T22:57:57.513Z,5.40
2019-03-27T23:00:25.787Z,5.60
2019-03-27T23:02:52.296Z,6.23
2019-03-27T23:05:22.834Z,5.60
2019-03-27T23:07:49.195Z,5.23
2019-03-27T23:10:15.556Z,5.27
2019-03-27T23:12:41.957Z,4.30
2019-03-27T23:15:08.730Z,4.40
2019-03-27T23:17:35.229Z,4.20
2019-03-27T23:20:05.032Z,3.83
2019-03-27T23:22:31.486Z,3.90
2019-03-27T23:24:57.973Z,3.50
2019-03-27T23:27:24.353Z,3.77
2019-03-27T23:29:51.466Z,3.27
2019-03-27T23:32:18.064Z,3.63
2019-03-27T23:34:44.453Z,3.20
2019-03-27T23:37:10.957Z,3.27
2019-03-27T23:39:37.301Z,3.17
2019-03-27T23:42:03.790Z,3.83
2019-03-27T23:44:30.040Z,3.33
2019-03-27T23:46:56.478Z,3.50
2019-03-27T23:49:22.833Z,3.20
2019-03-27T23:51:49.365Z,3.17
2019-03-27T23:54:15.724Z,3.40
2019-03-27T23:56:42.100Z,3.07
2019-03-27T23:59:08.483Z,3.33
